METAR Data
IDs: Format: Raw Decoded Include TAF

Data at: 1132 UTC 07 Jul 2020

METAR for:KFRR (Front Royal/Warren C, VA, US)
Text:KFRR 071115Z AUTO 00000KT 21/21 A3006 RMK AO1
Temperature: 21.0°C ( 70°F)
Dewpoint: 21.0°C ( 70°F) [RH = 100%]
Pressure (altimeter):30.06 inches Hg (1018.0 mb)
Winds:calm
QC Flag:automated observation with no human augmentation